sensor_id;sensor_type;location;lat;lon;timestamp;pressure;altitude;pressure_sealevel;temperature;humidity
49393;BME280;35268;42.642;23.308;2023-06-26T00:01:14;93786.16;;;18.81;87.03
49393;BME280;35268;42.642;23.308;2023-06-26T00:03:40;93780.97;;;18.72;87.79
49393;BME280;35268;42.642;23.308;2023-06-26T00:06:05;93785.97;;;18.70;87.93
49393;BME280;35268;42.642;23.308;2023-06-26T00:08:30;93777.84;;;18.67;88.34
49393;BME280;35268;42.642;23.308;2023-06-26T00:10:56;93781.78;;;18.73;87.99
49393;BME280;35268;42.642;23.308;2023-06-26T00:13:23;93774.81;;;18.72;88.10
49393;BME280;35268;42.642;23.308;2023-06-26T00:15:48;93775.16;;;18.67;88.43
49393;BME280;35268;42.642;23.308;2023-06-26T00:18:14;93777.84;;;18.67;88.20
49393;BME280;35268;42.642;23.308;2023-06-26T00:20:40;93784.44;;;18.69;88.27
49393;BME280;35268;42.642;23.308;2023-06-26T00:23:05;93781.59;;;18.58;88.51
49393;BME280;35268;42.642;23.308;2023-06-26T00:25:33;93780.13;;;18.64;88.31
49393;BME280;35268;42.642;23.308;2023-06-26T00:27:58;93777.88;;;18.70;88.14
49393;BME280;35268;42.642;23.308;2023-06-26T00:30:24;93773.22;;;18.67;88.30
49393;BME280;35268;42.642;23.308;2023-06-26T00:32:49;93777.72;;;18.59;88.17
49393;BME280;35268;42.642;23.308;2023-06-26T00:35:16;93767.75;;;18.63;88.08
49393;BME280;35268;42.642;23.308;2023-06-26T00:37:41;93769.63;;;18.59;88.60
49393;BME280;35268;42.642;23.308;2023-06-26T00:40:07;93771.09;;;18.53;88.61
49393;BME280;35268;42.642;23.308;2023-06-26T00:42:34;93769.44;;;18.45;89.48
49393;BME280;35268;42.642;23.308;2023-06-26T00:44:59;93771.78;;;18.47;89.38
49393;BME280;35268;42.642;23.308;2023-06-26T00:47:25;93771.38;;;18.44;89.14
49393;BME280;35268;42.642;23.308;2023-06-26T00:49:51;93765.09;;;18.37;89.80
49393;BME280;35268;42.642;23.308;2023-06-26T00:52:17;93758.13;;;18.36;89.57
49393;BME280;35268;42.642;23.308;2023-06-26T00:54:43;93756.66;;;18.38;89.78
49393;BME280;35268;42.642;23.308;2023-06-26T00:57:08;93757.00;;;18.37;89.97
49393;BME280;35268;42.642;23.308;2023-06-26T00:59:34;93759.69;;;18.37;89.73
49393;BME280;35268;42.642;23.308;2023-06-26T01:02:00;93754.31;;;18.37;89.56
49393;BME280;35268;42.642;23.308;2023-06-26T01:04:26;93751.19;;;18.35;89.54
49393;BME280;35268;42.642;23.308;2023-06-26T01:06:53;93754.78;;;18.42;89.39
49393;BME280;35268;42.642;23.308;2023-06-26T01:09:20;93740.41;;;18.35;89.84
49393;BME280;35268;42.642;23.308;2023-06-26T01:11:46;93744.69;;;18.39;89.20
49393;BME280;35268;42.642;23.308;2023-06-26T01:14:12;93737.75;;;18.38;88.78
49393;BME280;35268;42.642;23.308;2023-06-26T01:16:39;93729.97;;;18.33;88.80
49393;BME280;35268;42.642;23.308;2023-06-26T01:19:16;93737.28;;;18.33;88.81
49393;BME280;35268;42.642;23.308;2023-06-26T01:22:02;93740.00;;;18.33;88.52
49393;BME280;35268;42.642;23.308;2023-06-26T01:24:38;93723.06;;;18.36;88.20
49393;BME280;35268;42.642;23.308;2023-06-26T01:27:05;93727.31;;;18.37;87.99
49393;BME280;35268;42.642;23.308;2023-06-26T01:29:32;93718.28;;;18.25;88.95
49393;BME280;35268;42.642;23.308;2023-06-26T01:31:59;93720.56;;;18.23;89.20
49393;BME280;35268;42.642;23.308;2023-06-26T01:34:25;93724.84;;;18.24;88.81
49393;BME280;35268;42.642;23.308;2023-06-26T01:36:52;93714.75;;;18.18;88.75
49393;BME280;35268;42.642;23.308;2023-06-26T01:39:18;93713.59;;;18.19;89.07
49393;BME280;35268;42.642;23.308;2023-06-26T01:41:44;93714.28;;;18.12;88.46
49393;BME280;35268;42.642;23.308;2023-06-26T01:44:26;93723.81;;;18.06;89.02
49393;BME280;35268;42.642;23.308;2023-06-26T01:46:59;93715.00;;;18.09;89.12
49393;BME280;35268;42.642;23.308;2023-06-26T01:54:37;93717.28;;;18.07;88.75
49393;BME280;35268;42.642;23.308;2023-06-26T01:57:05;93706.19;;;18.12;88.20
49393;BME280;35268;42.642;23.308;2023-06-26T01:59:33;93710.06;;;18.15;87.64
49393;BME280;35268;42.642;23.308;2023-06-26T02:02:00;93714.63;;;18.11;87.78
49393;BME280;35268;42.642;23.308;2023-06-26T02:04:26;93713.16;;;18.17;87.46
49393;BME280;35268;42.642;23.308;2023-06-26T02:06:52;93709.38;;;18.21;87.41
49393;BME280;35268;42.642;23.308;2023-06-26T02:09:17;93710.13;;;18.18;86.50
49393;BME280;35268;42.642;23.308;2023-06-26T02:11:43;93710.13;;;18.18;86.67
49393;BME280;35268;42.642;23.308;2023-06-26T02:14:08;93709.44;;;18.25;86.14
49393;BME280;35268;42.642;23.308;2023-06-26T02:16:35;93711.00;;;18.26;86.06
49393;BME280;35268;42.642;23.308;2023-06-26T02:19:01;93714.13;;;18.28;85.88
49393;BME280;35268;42.642;23.308;2023-06-26T02:21:26;93717.94;;;18.27;85.86
49393;BME280;35268;42.642;23.308;2023-06-26T02:23:51;93705.81;;;18.14;86.03
49393;BME280;35268;42.642;23.308;2023-06-26T02:26:17;93710.75;;;18.08;85.99
49393;BME280;35268;42.642;23.308;2023-06-26T02:28:42;93709.66;;;18.13;86.30
49393;BME280;35268;42.642;23.308;2023-06-26T02:31:08;93702.66;;;18.08;86.38
49393;BME280;35268;42.642;23.308;2023-06-26T02:33:33;93709.09;;;18.00;87.30
49393;BME280;35268;42.642;23.308;2023-06-26T02:35:59;93711.38;;;17.98;87.44
49393;BME280;35268;42.642;23.308;2023-06-26T02:38:24;93714.50;;;18.00;87.89
49393;BME280;35268;42.642;23.308;2023-06-26T02:40:50;93712.19;;;18.02;87.65
49393;BME280;35268;42.642;23.308;2023-06-26T02:43:15;93715.63;;;17.99;87.28
49393;BME280;35268;42.642;23.308;2023-06-26T02:45:41;93715.25;;;18.00;87.25
49393;BME280;35268;42.642;23.308;2023-06-26T02:48:07;93720.66;;;18.00;87.45
49393;BME280;35268;42.642;23.308;2023-06-26T02:50:32;93707.94;;;18.01;87.29
49393;BME280;35268;42.642;23.308;2023-06-26T02:52:58;93711.38;;;17.98;87.11
49393;BME280;35268;42.642;23.308;2023-06-26T02:55:24;93712.25;;;18.06;87.38
49393;BME280;35268;42.642;23.308;2023-06-26T02:57:49;93709.91;;;18.04;86.98
49393;BME280;35268;42.642;23.308;2023-06-26T03:00:15;93714.16;;;18.05;86.49
49393;BME280;35268;42.642;23.308;2023-06-26T03:02:40;93722.66;;;18.07;86.60
49393;BME280;35268;42.642;23.308;2023-06-26T03:05:06;93723.81;;;18.06;86.49
49393;BME280;35268;42.642;23.308;2023-06-26T03:07:32;93728.06;;;18.07;86.23
49393;BME280;35268;42.642;23.308;2023-06-26T03:09:57;93721.53;;;18.08;85.90
49393;BME280;35268;42.642;23.308;2023-06-26T03:12:23;93722.78;;;18.14;85.87
49393;BME280;35268;42.642;23.308;2023-06-26T03:14:49;93719.34;;;18.17;85.31
49393;BME280;35268;42.642;23.308;2023-06-26T03:17:15;93726.19;;;18.11;85.23
49393;BME280;35268;42.642;23.308;2023-06-26T03:19:40;93730.47;;;18.12;85.33
49393;BME280;35268;42.642;23.308;2023-06-26T03:22:06;93727.44;;;18.17;84.57
49393;BME280;35268;42.642;23.308;2023-06-26T03:24:31;93718.44;;;18.06;85.02
49393;BME280;35268;42.642;23.308;2023-06-26T03:26:57;93727.75;;;18.12;85.24
49393;BME280;35268;42.642;23.308;2023-06-26T03:29:22;93723.91;;;18.13;85.20
49393;BME280;35268;42.642;23.308;2023-06-26T03:31:48;93720.50;;;18.16;85.18
49393;BME280;35268;42.642;23.308;2023-06-26T03:34:13;93726.31;;;18.18;85.15
49393;BME280;35268;42.642;23.308;2023-06-26T03:36:38;93724.66;;;18.10;85.34
49393;BME280;35268;42.642;23.308;2023-06-26T03:39:04;93727.41;;;18.14;85.47
49393;BME280;35268;42.642;23.308;2023-06-26T03:41:30;93727.34;;;18.10;85.86
49393;BME280;35268;42.642;23.308;2023-06-26T03:43:55;93730.41;;;18.09;86.03
49393;BME280;35268;42.642;23.308;2023-06-26T03:46:22;93727.75;;;18.12;85.91
49393;BME280;35268;42.642;23.308;2023-06-26T03:48:47;93725.34;;;18.07;85.95
49393;BME280;35268;42.642;23.308;2023-06-26T03:51:14;93727.75;;;18.12;85.88
49393;BME280;35268;42.642;23.308;2023-06-26T03:53:39;93723.50;;;18.11;85.53
49393;BME280;35268;42.642;23.308;2023-06-26T03:56:05;93728.47;;;18.09;86.29
49393;BME280;35268;42.642;23.308;2023-06-26T03:58:30;93726.16;;;18.08;86.35
49393;BME280;35268;42.642;23.308;2023-06-26T04:00:56;93725.75;;;18.06;85.70
49393;BME280;35268;42.642;23.308;2023-06-26T04:03:23;93721.53;;;18.08;85.08
49393;BME280;35268;42.642;23.308;2023-06-26T04:05:49;93723.13;;;18.13;85.52
49393;BME280;35268;42.642;23.308;2023-06-26T04:08:14;93725.75;;;18.06;85.86
49393;BME280;35268;42.642;23.308;2023-06-26T04:10:39;93719.13;;;18.03;86.07
49393;BME280;35268;42.642;23.308;2023-06-26T04:13:05;93733.03;;;18.05;86.05
49393;BME280;35268;42.642;23.308;2023-06-26T04:15:31;93725.78;;;18.09;85.69
49393;BME280;35268;42.642;23.308;2023-06-26T04:17:56;93725.47;;;18.14;nan
49393;BME280;35268;42.642;23.308;2023-06-26T04:20:21;93729.72;;;18.15;85.51
49393;BME280;35268;42.642;23.308;2023-06-26T04:22:47;93726.31;;;18.18;85.34
49393;BME280;35268;42.642;23.308;2023-06-26T04:25:12;93737.91;;;18.22;84.87
49393;BME280;35268;42.642;23.308;2023-06-26T04:27:38;93732.59;;;18.26;84.77
49393;BME280;35268;42.642;23.308;2023-06-26T04:30:04;93732.59;;;18.30;84.25
49393;BME280;35268;42.642;23.308;2023-06-26T04:32:30;93728.03;;;18.34;84.29
49393;BME280;35268;42.642;23.308;2023-06-26T04:34:55;93731.91;;;18.33;83.29
49393;BME280;35268;42.642;23.308;2023-06-26T04:37:22;93724.50;;;18.26;83.91
49393;BME280;35268;42.642;23.308;2023-06-26T04:39:47;93740.69;;;18.30;83.75
49393;BME280;35268;42.642;23.308;2023-06-26T04:42:13;93739.25;;;18.36;83.67
49393;BME280;35268;42.642;23.308;2023-06-26T04:44:38;93731.94;;;18.36;83.94
49393;BME280;35268;42.642;23.308;2023-06-26T04:47:06;93737.47;;;18.47;84.02
49393;BME280;35268;42.642;23.308;2023-06-26T04:49:32;93747.22;;;18.55;83.87
49393;BME280;35268;42.642;23.308;2023-06-26T04:51:57;93744.69;;;18.70;83.87
49393;BME280;35268;42.642;23.308;2023-06-26T04:54:25;93744.41;;;18.78;83.85
49393;BME280;35268;42.642;23.308;2023-06-26T04:56:51;93737.56;;;18.84;82.97
49393;BME280;35268;42.642;23.308;2023-06-26T04:59:16;93746.22;;;18.97;82.62
49393;BME280;35268;42.642;23.308;2023-06-26T05:01:41;93755.56;;;19.03;82.46
49393;BME280;35268;42.642;23.308;2023-06-26T05:04:07;93733.59;;;19.05;81.55
49393;BME280;35268;42.642;23.308;2023-06-26T05:06:33;93742.88;;;19.08;83.02
49393;BME280;35268;42.642;23.308;2023-06-26T05:08:59;93743.22;;;19.06;82.58
49393;BME280;35268;42.642;23.308;2023-06-26T05:11:24;93745.06;;;18.98;83.17
49393;BME280;35268;42.642;23.308;2023-06-26T05:13:50;93752.72;;;18.93;83.14
49393;BME280;35268;42.642;23.308;2023-06-26T05:16:15;93755.81;;;18.95;82.81
49393;BME280;35268;42.642;23.308;2023-06-26T05:18:41;93759.31;;;18.95;82.80
49393;BME280;35268;42.642;23.308;2023-06-26T05:21:07;93753.41;;;18.86;82.89
49393;BME280;35268;42.642;23.308;2023-06-26T05:23:33;93754.97;;;18.87;83.34
49393;BME280;35268;42.642;23.308;2023-06-26T05:26:00;93762.97;;;18.80;83.14
49393;BME280;35268;42.642;23.308;2023-06-26T05:28:27;93761.91;;;18.88;82.65
49393;BME280;35268;42.642;23.308;2023-06-26T05:30:56;93763.38;;;18.82;82.89
49393;BME280;35268;42.642;23.308;2023-06-26T05:33:23;93758.09;;;18.93;82.84
49393;BME280;35268;42.642;23.308;2023-06-26T05:35:51;93768.31;;;19.07;83.50
49393;BME280;35268;42.642;23.308;2023-06-26T05:38:17;93767.63;;;19.13;82.69
49393;BME280;35268;42.642;23.308;2023-06-26T05:40:43;93781.84;;;19.10;82.08
49393;BME280;35268;42.642;23.308;2023-06-26T05:43:09;93766.72;;;19.02;82.06
49393;BME280;35268;42.642;23.308;2023-06-26T05:45:34;93764.47;;;19.08;82.21
49393;BME280;35268;42.642;23.308;2023-06-26T05:48:00;93765.13;;;18.97;82.35
49393;BME280;35268;42.642;23.308;2023-06-26T05:50:26;93769.09;;;19.07;82.55
49393;BME280;35268;42.642;23.308;2023-06-26T05:52:52;93782.16;;;19.01;82.37
49393;BME280;35268;42.642;23.308;2023-06-26T05:55:18;93776.03;;;19.08;82.31
49393;BME280;35268;42.642;23.308;2023-06-26T05:57:45;93773.81;;;19.14;81.61
49393;BME280;35268;42.642;23.308;2023-06-26T06:00:11;93787.31;;;19.14;81.49
49393;BME280;35268;42.642;23.308;2023-06-26T06:02:38;93768.88;;;19.23;81.78
49393;BME280;35268;42.642;23.308;2023-06-26T06:05:04;93774.41;;;19.34;81.57
49393;BME280;35268;42.642;23.308;2023-06-26T06:07:33;93778.59;;;19.31;80.59
49393;BME280;35268;42.642;23.308;2023-06-26T06:09:59;93774.81;;;19.39;80.84
49393;BME280;35268;42.642;23.308;2023-06-26T06:12:25;93777.22;;;19.44;80.75
49393;BME280;35268;42.642;23.308;2023-06-26T06:14:51;93778.06;;;19.56;81.43
49393;BME280;35268;42.642;23.308;2023-06-26T06:17:17;93770.56;;;19.72;80.23
49393;BME280;35268;42.642;23.308;2023-06-26T06:19:43;93774.53;;;19.86;79.19
49393;BME280;35268;42.642;23.308;2023-06-26T06:22:08;93770.69;;;19.90;78.17
49393;BME280;35268;42.642;23.308;2023-06-26T06:24:34;93772.28;;;19.95;78.05
49393;BME280;35268;42.642;23.308;2023-06-26T06:26:59;93767.69;;;20.02;77.98
49393;BME280;35268;42.642;23.308;2023-06-26T06:29:25;93775.41;;;19.97;78.38
49393;BME280;35268;42.642;23.308;2023-06-26T06:31:50;93760.00;;;20.08;78.57
49393;BME280;35268;42.642;23.308;2023-06-26T06:34:16;93763.16;;;20.14;78.34
49393;BME280;35268;42.642;23.308;2023-06-26T06:36:42;93760.09;;;20.22;76.59
49393;BME280;35268;42.642;23.308;2023-06-26T06:39:07;93769.38;;;20.25;76.35
49393;BME280;35268;42.642;23.308;2023-06-26T06:41:33;93763.22;;;20.24;77.79
49393;BME280;35268;42.642;23.308;2023-06-26T06:43:59;93765.47;;;20.15;76.82
49393;BME280;35268;42.642;23.308;2023-06-26T06:46:24;93759.19;;;20.04;76.65
49393;BME280;35268;42.642;23.308;2023-06-26T06:48:52;93759.28;;;20.11;75.01
49393;BME280;35268;42.642;23.308;2023-06-26T06:51:18;93758.53;;;20.18;75.42
49393;BME280;35268;42.642;23.308;2023-06-26T06:53:43;93755.91;;;20.32;75.71
49393;BME280;35268;42.642;23.308;2023-06-26T06:56:09;93757.88;;;20.39;75.23
49393;BME280;35268;42.642;23.308;2023-06-26T06:58:34;93757.16;;;20.49;74.62
49393;BME280;35268;42.642;23.308;2023-06-26T07:01:01;93761.13;;;20.59;73.62
49393;BME280;35268;42.642;23.308;2023-06-26T07:03:27;93756.53;;;20.67;74.21
49393;BME280;35268;42.642;23.308;2023-06-26T07:05:53;93750.75;;;20.68;73.89
49393;BME280;35268;42.642;23.308;2023-06-26T07:08:19;93756.94;;;20.72;73.37
49393;BME280;35268;42.642;23.308;2023-06-26T07:10:44;93752.72;;;20.82;73.87
49393;BME280;35268;42.642;23.308;2023-06-26T07:13:10;93758.19;;;20.89;71.90
49393;BME280;35268;42.642;23.308;2023-06-26T07:15:35;93754.34;;;21.01;72.27
49393;BME280;35268;42.642;23.308;2023-06-26T07:18:00;93758.59;;;20.98;71.51
49393;BME280;35268;42.642;23.308;2023-06-26T07:20:26;93751.28;;;21.02;70.46
49393;BME280;35268;42.642;23.308;2023-06-26T07:22:52;93756.34;;;21.15;70.38
49393;BME280;35268;42.642;23.308;2023-06-26T07:25:18;93746.66;;;21.17;70.09
49393;BME280;35268;42.642;23.308;2023-06-26T07:27:43;93758.63;;;21.06;68.54
49393;BME280;35268;42.642;23.308;2023-06-26T07:30:10;93750.50;;;21.06;70.63
49393;BME280;35268;42.642;23.308;2023-06-26T07:32:36;93749.34;;;21.14;70.89
49393;BME280;35268;42.642;23.308;2023-06-26T07:35:01;93747.88;;;21.34;68.15
49393;BME280;35268;42.642;23.308;2023-06-26T07:37:27;93755.63;;;21.39;66.96
49393;BME280;35268;42.642;23.308;2023-06-26T07:39:52;93763.78;;;21.39;67.98
49393;BME280;35268;42.642;23.308;2023-06-26T07:42:18;93749.03;;;21.37;66.01
49393;BME280;35268;42.642;23.308;2023-06-26T07:44:43;93747.13;;;21.37;66.19
49393;BME280;35268;42.642;23.308;2023-06-26T07:47:09;93756.84;;;21.56;65.38
49393;BME280;35268;42.642;23.308;2023-06-26T07:49:35;93762.25;;;21.63;64.23
49393;BME280;35268;42.642;23.308;2023-06-26T07:52:01;93752.59;;;21.62;64.70
49393;BME280;35268;42.642;23.308;2023-06-26T07:59:20;93765.78;;;21.93;63.91
49393;BME280;35268;42.642;23.308;2023-06-26T08:01:46;93759.19;;;21.97;61.94
49393;BME280;35268;42.642;23.308;2023-06-26T08:04:14;93751.06;;;22.01;62.12
49393;BME280;35268;42.642;23.308;2023-06-26T08:06:39;93745.25;;;22.13;60.94
49393;BME280;35268;42.642;23.308;2023-06-26T08:09:06;93749.88;;;22.16;62.75
49393;BME280;35268;42.642;23.308;2023-06-26T08:11:33;93758.41;;;22.22;63.81
49393;BME280;35268;42.642;23.308;2023-06-26T08:13:58;93758.81;;;22.24;62.30
49393;BME280;35268;42.642;23.308;2023-06-26T08:16:24;93747.59;;;22.33;61.42
49393;BME280;35268;42.642;23.308;2023-06-26T08:18:50;93744.84;;;22.22;60.84
49393;BME280;35268;42.642;23.308;2023-06-26T08:21:15;93741.34;;;22.32;61.61
49393;BME280;35268;42.642;23.308;2023-06-26T08:23:40;93755.31;;;22.45;61.96
49393;BME280;35268;42.642;23.308;2023-06-26T08:26:07;93755.31;;;22.38;61.25
49393;BME280;35268;42.642;23.308;2023-06-26T08:28:33;93749.91;;;22.23;62.07
49393;BME280;35268;42.642;23.308;2023-06-26T08:30:58;93753.00;;;22.26;62.81
49393;BME280;35268;42.642;23.308;2023-06-26T08:33:24;93746.78;;;22.32;60.65
49393;BME280;35268;42.642;23.308;2023-06-26T08:35:50;93756.88;;;22.32;60.43
49393;BME280;35268;42.642;23.308;2023-06-26T08:38:15;93748.34;;;22.26;60.67
49393;BME280;35268;42.642;23.308;2023-06-26T08:40:41;93764.63;;;22.19;59.72
49393;BME280;35268;42.642;23.308;2023-06-26T08:43:07;93756.88;;;22.14;61.13
49393;BME280;35268;42.642;23.308;2023-06-26T08:45:32;93752.63;;;22.23;60.75
49393;BME280;35268;42.642;23.308;2023-06-26T08:48:00;93750.66;;;22.42;59.43
49393;BME280;35268;42.642;23.308;2023-06-26T08:50:29;93759.91;;;22.66;59.46
49393;BME280;35268;42.642;23.308;2023-06-26T08:53:01;93762.22;;;22.82;58.15
49393;BME280;35268;42.642;23.308;2023-06-26T08:55:31;93756.78;;;22.82;58.52
49393;BME280;35268;42.642;23.308;2023-06-26T08:57:58;93747.81;;;22.85;58.35
49393;BME280;35268;42.642;23.308;2023-06-26T09:00:24;93760.22;;;22.90;58.16
49393;BME280;35268;42.642;23.308;2023-06-26T09:02:50;93754.41;;;22.91;57.40
49393;BME280;35268;42.642;23.308;2023-06-26T09:05:15;93752.81;;;22.97;55.77
49393;BME280;35268;42.642;23.308;2023-06-26T09:07:41;93751.28;;;22.89;56.10
49393;BME280;35268;42.642;23.308;2023-06-26T09:10:07;93749.34;;;22.93;55.06
49393;BME280;35268;42.642;23.308;2023-06-26T09:12:34;93753.97;;;23.11;57.06
49393;BME280;35268;42.642;23.308;2023-06-26T09:15:00;93752.03;;;23.08;57.29
49393;BME280;35268;42.642;23.308;2023-06-26T09:17:33;93745.06;;;22.96;56.92
49393;BME280;35268;42.642;23.308;2023-06-26T09:20:03;93747.41;;;23.05;55.68
49393;BME280;35268;42.642;23.308;2023-06-26T09:22:32;93746.19;;;23.13;57.03
49393;BME280;35268;42.642;23.308;2023-06-26T09:24:58;93748.84;;;23.23;56.64
49393;BME280;35268;42.642;23.308;2023-06-26T09:27:23;93748.00;;;23.37;54.20
49393;BME280;35268;42.642;23.308;2023-06-26T09:29:50;93755.78;;;23.35;54.22
49393;BME280;35268;42.642;23.308;2023-06-26T09:32:16;93749.66;;;23.20;55.92
49393;BME280;35268;42.642;23.308;2023-06-26T09:34:42;93744.59;;;23.19;56.64
49393;BME280;35268;42.642;23.308;2023-06-26T09:37:12;93756.69;;;23.14;54.92
49393;BME280;35268;42.642;23.308;2023-06-26T09:39:38;93750.50;;;23.07;56.54
49393;BME280;35268;42.642;23.308;2023-06-26T09:42:04;93741.97;;;23.05;56.93
49393;BME280;35268;42.642;23.308;2023-06-26T09:44:30;93749.63;;;23.24;56.55
49393;BME280;35268;42.642;23.308;2023-06-26T09:46:57;93739.84;;;23.41;55.49
49393;BME280;35268;42.642;23.308;2023-06-26T09:49:23;93744.34;;;23.66;55.38
49393;BME280;35268;42.642;23.308;2023-06-26T09:51:50;93747.81;;;23.66;51.99
49393;BME280;35268;42.642;23.308;2023-06-26T09:54:16;93754.91;;;23.53;52.71
49393;BME280;35268;42.642;23.308;2023-06-26T09:56:42;93748.00;;;23.37;50.48
49393;BME280;35268;42.642;23.308;2023-06-26T09:59:08;93758.53;;;23.28;51.41
49393;BME280;35268;42.642;23.308;2023-06-26T10:01:41;93747.63;;;23.35;51.54
49393;BME280;35268;42.642;23.308;2023-06-26T10:04:06;93753.81;;;23.39;50.58
49393;BME280;35268;42.642;23.308;2023-06-26T10:06:35;93748.31;;;23.47;50.97
49393;BME280;35268;42.642;23.308;2023-06-26T10:09:02;93740.16;;;23.50;51.50
49393;BME280;35268;42.642;23.308;2023-06-26T10:11:39;93739.69;;;23.59;52.83
49393;BME280;35268;42.642;23.308;2023-06-26T10:14:07;93740.06;;;23.61;53.11
49393;BME280;35268;42.642;23.308;2023-06-26T10:16:34;93726.81;;;23.77;50.88
49393;BME280;35268;42.642;23.308;2023-06-26T10:19:05;93725.16;;;23.87;51.04
49393;BME280;35268;42.642;23.308;2023-06-26T10:21:34;93726.72;;;23.85;50.98
49393;BME280;35268;42.642;23.308;2023-06-26T10:24:00;93735.22;;;23.94;50.73
49393;BME280;35268;42.642;23.308;2023-06-26T10:26:26;93723.53;;;23.97;50.43
49393;BME280;35268;42.642;23.308;2023-06-26T10:28:54;93732.78;;;24.03;51.80
49393;BME280;35268;42.642;23.308;2023-06-26T10:31:23;93741.72;;;24.07;48.71
49393;BME280;35268;42.642;23.308;2023-06-26T10:33:51;93752.22;;;24.05;47.47
49393;BME280;35268;42.642;23.308;2023-06-26T10:36:19;93735.16;;;24.01;46.32
49393;BME280;35268;42.642;23.308;2023-06-26T10:38:52;93728.47;;;24.09;47.33
49393;BME280;35268;42.642;23.308;2023-06-26T10:41:22;93729.69;;;24.05;46.80
49393;BME280;35268;42.642;23.308;2023-06-26T10:44:06;93733.63;;;24.00;48.20
49393;BME280;35268;42.642;23.308;2023-06-26T10:46:34;93727.81;;;23.98;49.09
49393;BME280;35268;42.642;23.308;2023-06-26T10:49:13;93734.66;;;24.13;48.23
49393;BME280;35268;42.642;23.308;2023-06-26T10:51:46;93734.13;;;24.29;48.91
49393;BME280;35268;42.642;23.308;2023-06-26T10:54:14;93731.66;;;24.42;46.22
49393;BME280;35268;42.642;23.308;2023-06-26T10:56:44;93731.81;;;24.28;46.08
49393;BME280;35268;42.642;23.308;2023-06-26T10:59:24;93725.63;;;24.23;47.06
49393;BME280;35268;42.642;23.308;2023-06-26T11:02:01;93731.06;;;24.23;45.49
49393;BME280;35268;42.642;23.308;2023-06-26T11:04:47;93730.31;;;24.19;48.48
49393;BME280;35268;42.642;23.308;2023-06-26T11:07:15;93727.22;;;24.17;47.22
49393;BME280;35268;42.642;23.308;2023-06-26T11:12:36;93727.97;;;24.21;48.33
49393;BME280;35268;42.642;23.308;2023-06-26T11:15:13;93724.09;;;24.22;48.88
49393;BME280;35268;42.642;23.308;2023-06-26T11:17:39;93732.25;;;24.22;48.49
49393;BME280;35268;42.642;23.308;2023-06-26T11:20:11;93723.22;;;24.29;48.59
49393;BME280;35268;42.642;23.308;2023-06-26T11:22:38;93725.47;;;24.38;47.17
49393;BME280;35268;42.642;23.308;2023-06-26T11:25:05;93726.94;;;24.46;47.70
49393;BME280;35268;42.642;23.308;2023-06-26T11:30:02;93724.22;;;24.46;47.41
49393;BME280;35268;42.642;23.308;2023-06-26T11:32:27;93734.06;;;24.36;47.18
49393;BME280;35268;42.642;23.308;2023-06-26T11:34:54;93717.31;;;24.38;50.11
49393;BME280;35268;42.642;23.308;2023-06-26T11:37:21;93708.25;;;24.48;48.29
49393;BME280;35268;42.642;23.308;2023-06-26T11:39:46;93721.84;;;24.55;47.51
49393;BME280;35268;42.642;23.308;2023-06-26T11:42:12;93721.25;;;24.33;45.85
49393;BME280;35268;42.642;23.308;2023-06-26T11:44:42;93721.69;;;24.28;45.49
49393;BME280;35268;42.642;23.308;2023-06-26T11:47:18;93714.34;;;24.21;45.30
49393;BME280;35268;42.642;23.308;2023-06-26T11:49:48;93721.41;;;24.15;45.64
49393;BME280;35268;42.642;23.308;2023-06-26T11:52:15;93708.63;;;24.12;47.30
49393;BME280;35268;42.642;23.308;2023-06-26T11:54:42;93715.63;;;24.10;46.04
49393;BME280;35268;42.642;23.308;2023-06-26T11:57:07;93717.44;;;24.23;46.76
49393;BME280;35268;42.642;23.308;2023-06-26T11:59:38;93709.25;;;24.27;46.44
49393;BME280;35268;42.642;23.308;2023-06-26T12:02:06;93715.41;;;24.35;47.86
49393;BME280;35268;42.642;23.308;2023-06-26T12:04:32;93709.63;;;24.29;47.03
49393;BME280;35268;42.642;23.308;2023-06-26T12:06:59;93706.13;;;24.29;48.80
49393;BME280;35268;42.642;23.308;2023-06-26T12:09:25;93711.06;;;24.41;47.03
49393;BME280;35268;42.642;23.308;2023-06-26T12:11:53;93706.41;;;24.38;46.37
49393;BME280;35268;42.642;23.308;2023-06-26T12:14:20;93708.25;;;24.52;45.20
49393;BME280;35268;42.642;23.308;2023-06-26T12:16:46;93707.84;;;24.53;44.85
49393;BME280;35268;42.642;23.308;2023-06-26T12:19:12;93696.91;;;24.57;46.50
49393;BME280;35268;42.642;23.308;2023-06-26T12:24:08;93703.25;;;24.81;44.85
49393;BME280;35268;42.642;23.308;2023-06-26T12:26:35;93693.91;;;24.82;44.88
49393;BME280;35268;42.642;23.308;2023-06-26T12:29:17;93697.09;;;25.08;44.76
49393;BME280;35268;42.642;23.308;2023-06-26T12:31:45;93703.63;;;25.14;44.12
49393;BME280;35268;42.642;23.308;2023-06-26T12:34:12;93696.00;;;25.32;44.65
49393;BME280;35268;42.642;23.308;2023-06-26T12:36:46;93690.53;;;25.59;42.66
49393;BME280;35268;42.642;23.308;2023-06-26T12:39:16;93694.56;;;25.51;42.53
49393;BME280;35268;42.642;23.308;2023-06-26T12:41:49;93709.81;;;25.72;41.63
49393;BME280;35268;42.642;23.308;2023-06-26T12:44:41;93720.97;;;25.58;42.99
49393;BME280;35268;42.642;23.308;2023-06-26T12:47:06;93711.34;;;25.50;42.61
49393;BME280;35268;42.642;23.308;2023-06-26T12:52:00;93688.34;;;25.74;42.47
49393;BME280;35268;42.642;23.308;2023-06-26T12:54:26;93707.31;;;25.58;42.65
49393;BME280;35268;42.642;23.308;2023-06-26T12:56:52;93701.91;;;25.27;42.82
49393;BME280;35268;42.642;23.308;2023-06-26T12:59:17;93714.06;;;25.19;43.97
49393;BME280;35268;42.642;23.308;2023-06-26T13:01:43;93695.53;;;25.07;43.39
49393;BME280;35268;42.642;23.308;2023-06-26T13:04:08;93691.31;;;25.02;43.84
49393;BME280;35268;42.642;23.308;2023-06-26T13:06:36;93699.91;;;25.00;45.29
49393;BME280;35268;42.642;23.308;2023-06-26T13:09:02;93696.72;;;25.06;45.34